Forside
METAR-TAF:

METAR-TAF

Lufthavne :

Crystal Airport

Minneapolis / Crystal, Minnesota, USA

Breddekreds: 45-03-45N, længdekreds: 093-21-03W, højde: 264 m

Aktuelle vejr

Denne rapport blev lavet for 12 minutter siden, kl. 19:53 UTC
Vind 9 kt fra syd med vindstød på up til 15 kt
Temperatur 6°C
Fugtighed 52%
Tryk 1012 hPa
Sigt: 16.1 km
skyfri

METAR: KMIC 221953Z 19009G15KT 10SM CLR 06/M03 A2989 RMK AO2 SLP132 T00561033

Tid: 14:05 (20:05 UTC)


TAF: fraværende

Vejrobservationer og prognoser fra mere end 4000 lufthavne (METAR og TAF).

De gule og røde prikker repræsenterer de meteorologiske stationer.

Flyt musen over at se navnet på stationen.

Så klik over at se vejr observationer og prognoser.

At skifte det kort: Klik på de grønne knapper med et sort kors for at zoome ind; på den grønne knap med en bindestreg for at zoome ud; eller på de grønne pile for tilstødende kort.


METAR-TAF: